Terminal Aerodrome Forecast
Issued by NWS

Home | Current Version | Previous Version | Text Only | Print | Product List | Glossary On
Versions: 1 2 3 4 5 6 7 8 9 10 11 12 13 14 15 16 17
223
FTUS44 KCRP 201138
TAFALI
TAF
KALI 201138Z 2012/2112 16013KT P6SM BKN013 OVC020 WS020/17045KT
      TEMPO 2012/2015 SCT015 BKN025
     FM201500 17017G23KT P6SM SCT015 BKN025
     FM201900 16018G24KT P6SM SCT025 BKN050
     FM202300 15012G18KT P6SM VCSH BKN035
     FM210300 14007KT P6SM SHRA VCTS BKN012 OVC020CB PROB30
      2103/2109 6SM TS BR BKN018CB
     FM210900 14007KT P6SM VCSH OVC010=

USA.gov is the U.S. government's official web portal to all federal, state and local government web resources and services.